Hydeville, Vermont
Current Conditions -  °F | °C
As of 4:55 AM on Wednesday 26 Nov 2014 (Local Time) from KRUT Reporting Station
Scattered Clouds Scattered Clouds  
Wind Chill: 36°   Ceiling: Unl
Heat Index: 36°   Visibility: 10mi
Dew Point: 25°   Wind: 3mph
Humidity: 65%   Direction: 340°NNW
Pressure: 30.17"   Gusts: NA
Location:  43.61°N, 73.23°W
Report Text: KRUT 260955Z 34003KT 10SM SCT035 02/M04 A3017 RMK AO1
Loading
Personal Weather Stations






























Interactive Weather Map New forecast layout! Learn more

10-Day Weather Forecast

Advertisements
Track Severe Weather on mobile